createdAt,value
2018-03-25T00:01:27.596Z,5.78
2018-03-25T00:04:33.128Z,5.78
2018-03-25T00:07:38.742Z,5.77
2018-03-25T00:10:44.339Z,5.76
2018-03-25T00:13:49.901Z,5.75
2018-03-25T00:16:55.440Z,5.74
2018-03-25T00:20:01.004Z,5.72
2018-03-25T00:23:06.515Z,5.71
2018-03-25T00:26:12.088Z,5.71
2018-03-25T00:29:17.598Z,5.69
2018-03-25T00:32:23.146Z,5.67
2018-03-25T00:35:28.704Z,5.67
2018-03-25T00:38:34.203Z,5.66
2018-03-25T00:41:39.760Z,5.65
2018-03-25T00:44:45.253Z,5.63
2018-03-25T00:47:50.794Z,5.62
2018-03-25T00:50:56.304Z,5.61
2018-03-25T00:54:01.854Z,5.61
2018-03-25T00:57:07.358Z,5.59
2018-03-25T01:00:12.912Z,5.58
2018-03-25T01:03:18.166Z,5.57
2018-03-25T01:06:23.818Z,5.56
2018-03-25T01:09:29.337Z,5.56
2018-03-25T01:12:34.905Z,5.54
2018-03-25T01:15:51.519Z,5.54
2018-03-25T01:18:56.789Z,5.52
2018-03-25T01:22:02.294Z,5.51
2018-03-25T01:25:07.867Z,5.50
2018-03-25T01:28:13.472Z,5.49
2018-03-25T01:31:19.057Z,5.48
2018-03-25T01:34:24.655Z,5.47
2018-03-25T01:37:30.217Z,5.46
2018-03-25T01:40:35.785Z,5.44
2018-03-25T01:43:41.303Z,5.43
2018-03-25T01:46:46.871Z,5.42
2018-03-25T01:49:52.373Z,5.41
2018-03-25T01:52:57.919Z,5.40
2018-03-25T01:56:03.422Z,5.39
2018-03-25T01:59:08.980Z,5.38
2018-03-25T02:02:14.510Z,5.37
2018-03-25T02:05:20.044Z,5.35
2018-03-25T02:08:25.608Z,5.35
2018-03-25T02:11:31.161Z,5.33
2018-03-25T02:14:36.656Z,5.33
2018-03-25T02:17:42.201Z,5.32
2018-03-25T02:20:47.713Z,5.31
2018-03-25T02:23:53.308Z,5.29
2018-03-25T02:26:58.845Z,5.28
2018-03-25T02:30:03.866Z,5.28
2018-03-25T02:33:09.438Z,5.27
2018-03-25T02:36:14.974Z,5.26
2018-03-25T02:39:20.522Z,5.25
2018-03-25T02:42:26.169Z,5.24
2018-03-25T02:45:31.681Z,5.23
2018-03-25T02:48:37.279Z,5.22
2018-03-25T02:51:42.637Z,5.21
2018-03-25T02:54:48.148Z,5.20
2018-03-25T02:57:53.740Z,5.19
2018-03-25T03:00:59.319Z,5.18
2018-03-25T03:04:04.922Z,5.16
2018-03-25T03:07:10.482Z,5.16
2018-03-25T03:10:16.002Z,5.15
2018-03-25T03:13:21.573Z,5.14
2018-03-25T03:16:27.097Z,5.13
2018-03-25T03:19:32.636Z,5.12
2018-03-25T03:22:38.144Z,5.12
2018-03-25T03:25:43.701Z,5.10
2018-03-25T03:28:49.221Z,5.10
2018-03-25T03:31:54.772Z,5.08
2018-03-25T03:35:00.322Z,5.08
2018-03-25T03:38:05.842Z,5.07
2018-03-25T03:41:11.417Z,5.06
2018-03-25T03:44:17.028Z,5.05
2018-03-25T03:47:22.562Z,5.04
2018-03-25T03:50:29.081Z,5.04
2018-03-25T03:53:36.323Z,5.03
2018-03-25T03:56:41.953Z,5.01
2018-03-25T03:59:47.487Z,5.01
2018-03-25T04:02:52.988Z,4.99
2018-03-25T04:05:58.587Z,4.99
2018-03-25T04:09:04.002Z,4.98
2018-03-25T04:12:09.743Z,4.97
2018-03-25T04:15:15.296Z,4.95
2018-03-25T04:18:20.853Z,4.95
2018-03-25T04:21:26.360Z,4.94
2018-03-25T04:24:31.918Z,4.93
2018-03-25T04:27:37.600Z,4.93
2018-03-25T04:30:43.342Z,4.92
2018-03-25T04:33:48.881Z,4.91
2018-03-25T04:36:54.436Z,4.90
2018-03-25T04:40:00.001Z,4.90
2018-03-25T04:43:05.565Z,4.89
2018-03-25T04:46:11.206Z,4.88
2018-03-25T04:49:16.809Z,4.88
2018-03-25T04:52:22.316Z,4.87
2018-03-25T04:55:27.882Z,4.86
2018-03-25T04:58:33.639Z,4.85
2018-03-25T05:01:39.224Z,4.85
2018-03-25T05:04:44.738Z,4.84
2018-03-25T05:07:50.298Z,4.84
2018-03-25T05:10:55.651Z,4.84
2018-03-25T05:14:01.204Z,4.83
2018-03-25T05:17:06.769Z,4.82
2018-03-25T05:20:12.348Z,4.82
2018-03-25T05:23:23.510Z,4.82
2018-03-25T05:26:30.541Z,4.81
2018-03-25T05:29:35.854Z,4.80
2018-03-25T05:32:41.407Z,4.79
2018-03-25T05:35:47.696Z,4.79
2018-03-25T05:38:58.624Z,4.79
2018-03-25T05:42:04.662Z,4.77
2018-03-25T05:45:13.792Z,4.77
2018-03-25T05:48:20.845Z,4.76
2018-03-25T05:51:27.555Z,4.77
2018-03-25T05:54:37.068Z,4.76
2018-03-25T05:57:45.091Z,4.76
2018-03-25T06:00:54.663Z,4.76
2018-03-25T06:04:01.090Z,4.76
2018-03-25T06:07:06.650Z,4.75
2018-03-25T06:10:14.514Z,4.77
2018-03-25T06:13:22.508Z,4.76
2018-03-25T06:16:29.028Z,4.77
2018-03-25T06:19:35.526Z,4.77
2018-03-25T06:22:43.826Z,4.78
2018-03-25T06:25:49.805Z,4.78
2018-03-25T06:28:56.451Z,4.78
2018-03-25T06:32:03.342Z,4.79
2018-03-25T06:35:09.766Z,4.79
2018-03-25T06:38:17.189Z,4.80
2018-03-25T06:41:23.297Z,4.81
2018-03-25T06:44:29.016Z,4.81
2018-03-25T06:47:34.682Z,4.83
2018-03-25T06:50:40.270Z,4.84
2018-03-25T06:53:45.785Z,4.84
2018-03-25T06:56:51.346Z,4.86
2018-03-25T06:59:56.881Z,4.86
2018-03-25T07:03:02.434Z,4.87
2018-03-25T07:06:07.958Z,4.89
2018-03-25T07:09:13.529Z,4.90
2018-03-25T07:12:19.097Z,4.91
2018-03-25T07:15:24.734Z,4.93
2018-03-25T07:18:33.241Z,4.94
2018-03-25T07:21:55.273Z,4.96
2018-03-25T07:25:01.998Z,4.97
2018-03-25T07:28:07.614Z,4.99
2018-03-25T07:31:13.251Z,5.00
2018-03-25T07:34:18.918Z,5.02
2018-03-25T07:37:24.490Z,5.05
2018-03-25T07:40:33.224Z,5.07
2018-03-25T07:43:38.949Z,5.10
2018-03-25T07:46:44.566Z,5.12
2018-03-25T07:49:50.187Z,5.13
2018-03-25T07:52:56.058Z,5.17
2018-03-25T07:56:03.193Z,5.19
2018-03-25T07:59:14.374Z,5.22
2018-03-25T08:02:19.890Z,5.25
2018-03-25T08:05:25.484Z,5.28
2018-03-25T08:08:31.066Z,5.32
2018-03-25T08:11:36.622Z,5.35
2018-03-25T08:14:51.126Z,5.39
2018-03-25T08:17:57.086Z,5.43
2018-03-25T08:21:02.634Z,5.48
2018-03-25T08:24:08.356Z,5.53
2018-03-25T08:27:13.921Z,5.57
2018-03-25T08:30:19.620Z,5.61
2018-03-25T08:33:33.710Z,5.65
2018-03-25T08:36:40.926Z,5.72
2018-03-25T08:39:46.552Z,5.77
2018-03-25T08:42:52.176Z,5.82
2018-03-25T08:45:57.701Z,5.87
2018-03-25T08:49:03.903Z,5.93
2018-03-25T08:52:09.941Z,5.97
2018-03-25T08:55:15.510Z,6.04
2018-03-25T08:58:21.089Z,6.09
2018-03-25T09:01:26.652Z,6.15
2018-03-25T09:04:32.266Z,6.19
2018-03-25T09:07:37.843Z,6.26
2018-03-25T09:10:43.419Z,6.33
2018-03-25T09:13:48.979Z,6.39
2018-03-25T09:16:54.561Z,6.45
2018-03-25T09:20:00.206Z,6.52
2018-03-25T09:23:05.882Z,6.58
2018-03-25T09:26:11.620Z,6.64
2018-03-25T09:29:17.204Z,6.71
2018-03-25T09:32:22.846Z,6.77
2018-03-25T09:35:28.397Z,6.84
2018-03-25T09:38:34.450Z,6.91
2018-03-25T09:41:40.042Z,6.97
2018-03-25T09:44:45.610Z,7.04
2018-03-25T09:47:51.261Z,7.09
2018-03-25T09:50:56.837Z,7.15
2018-03-25T09:54:02.422Z,7.21
2018-03-25T09:57:09.312Z,7.28
2018-03-25T10:00:14.750Z,7.33
2018-03-25T10:03:25.654Z,7.41
2018-03-25T10:06:31.492Z,7.47
2018-03-25T10:09:37.063Z,7.52
2018-03-25T10:12:50.731Z,7.57
2018-03-25T10:16:10.687Z,7.62
2018-03-25T10:19:25.349Z,7.70
2018-03-25T10:22:38.231Z,7.75
2018-03-25T10:25:51.278Z,7.80
2018-03-25T10:29:01.485Z,7.84
2018-03-25T10:32:13.530Z,7.87
2018-03-25T10:35:21.825Z,7.91
2018-03-25T10:38:32.051Z,7.95
2018-03-25T10:41:38.040Z,7.98
2018-03-25T10:44:47.367Z,8.01
2018-03-25T10:47:57.264Z,8.07
2018-03-25T10:51:04.760Z,8.13
2018-03-25T10:54:10.310Z,8.14
2018-03-25T10:57:15.942Z,8.17
2018-03-25T11:00:21.634Z,8.22
2018-03-25T11:03:27.322Z,8.26
2018-03-25T11:06:32.987Z,8.28
2018-03-25T11:09:38.553Z,8.31
2018-03-25T11:12:44.082Z,8.34
2018-03-25T11:15:49.638Z,8.36
2018-03-25T11:18:55.164Z,8.43
2018-03-25T11:22:00.574Z,8.46
2018-03-25T11:25:06.179Z,8.48
2018-03-25T11:28:11.744Z,8.51
2018-03-25T11:31:17.389Z,8.54
2018-03-25T11:34:22.967Z,8.58
2018-03-25T11:37:28.625Z,8.60
2018-03-25T11:40:34.452Z,8.67
2018-03-25T11:43:40.007Z,8.68
2018-03-25T11:46:45.610Z,8.74
2018-03-25T11:49:51.189Z,8.77
2018-03-25T11:52:56.789Z,8.80
2018-03-25T11:56:02.362Z,8.83
2018-03-25T11:59:07.925Z,8.85
2018-03-25T12:02:13.480Z,8.89
2018-03-25T12:05:19.320Z,8.90
2018-03-25T12:08:24.886Z,8.95
2018-03-25T12:11:30.414Z,8.97
2018-03-25T12:14:36.004Z,8.97
2018-03-25T12:17:41.530Z,9.02
2018-03-25T12:20:47.101Z,9.03
2018-03-25T12:23:52.632Z,9.03
2018-03-25T12:26:58.194Z,9.07
2018-03-25T12:30:03.814Z,9.08
2018-03-25T12:33:09.383Z,9.09
2018-03-25T12:36:15.183Z,9.09
2018-03-25T12:39:20.755Z,9.10
2018-03-25T12:42:26.314Z,9.10
2018-03-25T12:45:32.223Z,9.11
2018-03-25T12:48:37.812Z,9.15
2018-03-25T12:51:43.349Z,9.14
2018-03-25T12:54:48.937Z,9.13
2018-03-25T12:57:54.576Z,9.15
2018-03-25T13:01:00.178Z,9.17
2018-03-25T13:04:05.564Z,9.15
2018-03-25T13:07:11.162Z,9.16
2018-03-25T13:10:16.693Z,9.16
2018-03-25T13:13:22.252Z,9.17
2018-03-25T13:16:27.831Z,9.18
2018-03-25T13:19:33.404Z,9.18
2018-03-25T13:22:38.947Z,9.15
2018-03-25T13:25:44.555Z,9.18
2018-03-25T13:28:50.170Z,9.16
2018-03-25T13:31:55.757Z,9.17
2018-03-25T13:35:01.370Z,9.15
2018-03-25T13:38:06.890Z,9.13
2018-03-25T13:41:12.466Z,9.13
2018-03-25T13:44:18.103Z,9.15
2018-03-25T13:47:23.703Z,9.15
2018-03-25T13:50:31.753Z,9.14
2018-03-25T13:53:37.324Z,9.11
2018-03-25T13:56:42.838Z,9.09
2018-03-25T13:59:48.413Z,9.08
2018-03-25T14:02:53.970Z,9.08
2018-03-25T14:05:59.530Z,9.07
2018-03-25T14:09:04.630Z,9.08
2018-03-25T14:12:10.217Z,9.05
2018-03-25T14:15:15.766Z,9.05
2018-03-25T14:18:21.327Z,9.02
2018-03-25T14:21:26.970Z,9.02
2018-03-25T14:24:32.501Z,9.00
2018-03-25T14:27:38.071Z,8.99
2018-03-25T14:30:43.662Z,9.00
2018-03-25T14:33:49.189Z,8.98
2018-03-25T14:36:59.493Z,8.96
2018-03-25T14:40:05.316Z,8.96
2018-03-25T14:43:20.979Z,8.95
2018-03-25T14:46:28.589Z,8.93
2018-03-25T14:49:34.363Z,8.88
2018-03-25T14:52:39.930Z,8.90
2018-03-25T14:56:09.289Z,8.87
2018-03-25T14:59:15.000Z,8.87
2018-03-25T15:02:20.575Z,8.84
2018-03-25T15:05:26.204Z,8.82
2018-03-25T15:08:34.237Z,8.80
2018-03-25T15:11:39.810Z,8.76
2018-03-25T15:14:45.395Z,8.77
2018-03-25T15:17:51.177Z,8.76
2018-03-25T15:20:56.773Z,8.74
2018-03-25T15:24:02.366Z,8.73
2018-03-25T15:27:07.885Z,8.72
2018-03-25T15:30:13.205Z,8.68
2018-03-25T15:33:18.727Z,8.67
2018-03-25T15:36:24.354Z,8.64
2018-03-25T15:39:29.909Z,8.63
2018-03-25T15:42:35.558Z,8.60
2018-03-25T15:45:44.324Z,8.57
2018-03-25T15:48:50.942Z,8.57
2018-03-25T15:51:56.578Z,8.55
2018-03-25T15:55:02.148Z,8.53
2018-03-25T15:58:07.759Z,8.50
2018-03-25T16:01:13.762Z,8.48
2018-03-25T16:04:19.768Z,8.46
2018-03-25T16:07:26.198Z,8.44
2018-03-25T16:10:35.181Z,8.42
2018-03-25T16:13:42.615Z,8.39
2018-03-25T16:16:49.562Z,8.37
2018-03-25T16:19:55.396Z,8.34
2018-03-25T16:23:00.923Z,8.32
2018-03-25T16:26:07.632Z,8.30
2018-03-25T16:29:13.520Z,8.27
2018-03-25T16:32:19.868Z,8.23
2018-03-25T16:35:33.075Z,8.22
2018-03-25T16:38:52.533Z,8.20
2018-03-25T16:42:12.861Z,8.16
2018-03-25T16:45:29.503Z,8.14
2018-03-25T16:48:42.447Z,8.11
2018-03-25T16:51:52.835Z,8.08
2018-03-25T16:55:03.033Z,8.05
2018-03-25T16:58:13.756Z,8.01
2018-03-25T17:01:29.880Z,7.99
2018-03-25T17:04:43.145Z,7.96
2018-03-25T17:07:54.517Z,7.93
2018-03-25T17:11:08.851Z,7.89
2018-03-25T17:14:23.187Z,7.87
2018-03-25T17:17:38.000Z,7.84
2018-03-25T17:20:51.729Z,7.81
2018-03-25T17:24:06.311Z,7.78
2018-03-25T17:27:21.587Z,7.76
2018-03-25T17:30:28.321Z,7.72
2018-03-25T17:33:37.283Z,7.70
2018-03-25T17:36:44.390Z,7.67
2018-03-25T17:39:57.915Z,7.64
2018-03-25T17:43:11.502Z,7.61
2018-03-25T17:46:28.109Z,7.58
2018-03-25T17:49:36.264Z,7.56
2018-03-25T17:52:45.461Z,7.53
2018-03-25T17:55:53.863Z,7.50
2018-03-25T17:59:05.164Z,7.48
2018-03-25T18:02:20.482Z,7.46
2018-03-25T18:05:31.117Z,7.43
2018-03-25T18:08:37.640Z,7.41
2018-03-25T18:11:43.251Z,7.39
2018-03-25T18:14:48.895Z,7.36
2018-03-25T18:17:55.487Z,7.34
2018-03-25T18:21:01.087Z,7.32
2018-03-25T18:24:07.482Z,7.30
2018-03-25T18:27:19.592Z,7.28
2018-03-25T18:30:38.833Z,7.25
2018-03-25T18:33:51.807Z,7.22
2018-03-25T18:37:05.839Z,7.20
2018-03-25T18:40:14.689Z,7.17
2018-03-25T18:43:28.945Z,7.16
2018-03-25T18:46:42.533Z,7.13
2018-03-25T18:49:50.787Z,7.11
2018-03-25T18:52:59.108Z,7.09
2018-03-25T18:56:07.498Z,7.07
2018-03-25T18:59:15.304Z,7.05
2018-03-25T19:02:23.468Z,7.04
2018-03-25T19:05:39.172Z,7.02
2018-03-25T19:08:47.969Z,7.00
2018-03-25T19:12:11.992Z,6.98
2018-03-25T19:15:21.121Z,6.96
2018-03-25T19:18:29.972Z,6.94
2018-03-25T19:21:40.413Z,6.92
2018-03-25T19:24:49.390Z,6.91
2018-03-25T19:28:00.992Z,6.89
2018-03-25T19:31:09.873Z,6.88
2018-03-25T19:34:21.328Z,6.87
2018-03-25T19:37:37.314Z,6.85
2018-03-25T19:40:56.117Z,6.84
2018-03-25T19:44:12.633Z,6.81
2018-03-25T19:47:22.462Z,6.80
2018-03-25T19:50:38.511Z,6.78
2018-03-25T19:54:04.781Z,6.77
2018-03-25T19:57:13.425Z,6.75
2018-03-25T20:00:18.953Z,6.74
2018-03-25T20:03:24.527Z,6.72
2018-03-25T20:06:30.083Z,6.71
2018-03-25T20:09:36.542Z,6.69
2018-03-25T20:12:44.330Z,6.68
2018-03-25T20:16:00.610Z,6.67
2018-03-25T20:19:23.178Z,6.66
2018-03-25T20:22:50.009Z,6.64
2018-03-25T20:26:21.755Z,6.63
2018-03-25T20:29:30.229Z,6.61
2018-03-25T20:32:36.239Z,6.60
2018-03-25T20:35:42.079Z,6.57
2018-03-25T20:38:47.634Z,6.56
2018-03-25T20:45:20.482Z,6.54
2018-03-25T20:48:34.636Z,6.53
2018-03-25T20:51:47.250Z,6.52
2018-03-25T20:54:57.832Z,6.50
2018-03-25T20:58:06.334Z,6.49
2018-03-25T21:01:14.592Z,6.48
2018-03-25T21:04:25.719Z,6.46
2018-03-25T21:07:34.204Z,6.45
2018-03-25T21:10:41.958Z,6.45
2018-03-25T21:13:49.748Z,6.43
2018-03-25T21:16:55.824Z,6.41
2018-03-25T21:20:03.134Z,6.39
2018-03-25T21:23:08.653Z,6.38
2018-03-25T21:26:14.238Z,6.38
2018-03-25T21:29:19.864Z,6.37
2018-03-25T21:32:25.389Z,6.36
2018-03-25T21:35:30.942Z,6.36
2018-03-25T21:38:36.613Z,6.34
2018-03-25T21:41:42.190Z,6.33
2018-03-25T21:44:47.756Z,6.32
2018-03-25T21:47:53.272Z,6.31
2018-03-25T21:50:58.817Z,6.29
2018-03-25T21:54:04.420Z,6.30
2018-03-25T21:57:09.999Z,6.28
2018-03-25T22:00:15.552Z,6.27
2018-03-25T22:03:20.870Z,6.26
2018-03-25T22:06:26.390Z,6.25
2018-03-25T22:09:31.953Z,6.24
2018-03-25T22:12:37.477Z,6.22
2018-03-25T22:15:43.141Z,6.22
2018-03-25T22:18:59.749Z,6.21
2018-03-25T22:22:05.317Z,6.21
2018-03-25T22:25:10.825Z,6.20
2018-03-25T22:28:16.401Z,6.19
2018-03-25T22:31:21.917Z,6.17
2018-03-25T22:34:27.464Z,6.17
2018-03-25T22:37:32.969Z,6.16
2018-03-25T22:40:38.537Z,6.16
2018-03-25T22:43:44.155Z,6.14
2018-03-25T22:46:49.726Z,6.13
2018-03-25T22:49:55.227Z,6.13
2018-03-25T22:53:00.797Z,6.12
2018-03-25T22:56:06.325Z,6.11
2018-03-25T22:59:11.894Z,6.10
2018-03-25T23:02:17.407Z,6.09
2018-03-25T23:05:22.972Z,6.08
2018-03-25T23:08:28.510Z,6.07
2018-03-25T23:11:34.104Z,6.06
2018-03-25T23:14:39.617Z,6.05
2018-03-25T23:17:45.178Z,6.04
2018-03-25T23:20:50.731Z,6.03
2018-03-25T23:23:56.373Z,6.03
2018-03-25T23:27:01.989Z,6.02
2018-03-25T23:30:07.206Z,6.01
2018-03-25T23:33:12.520Z,6.00
2018-03-25T23:36:18.094Z,6.00
2018-03-25T23:39:23.609Z,5.97
2018-03-25T23:42:29.158Z,5.97
2018-03-25T23:45:35.933Z,5.97
2018-03-25T23:48:41.437Z,5.96
2018-03-25T23:51:47.002Z,5.95
2018-03-25T23:54:52.513Z,5.94
2018-03-25T23:57:58.112Z,5.93
